Time;durP1;ratioP1;P1;durP2;ratioP2;P2;SDS_P1;SDS_P2;PMS_P1;PMS_P2;Temp;Humidity;BMP_temperature;BMP_pressure;BME280_temperature;BME280_humidity;BME280_pressure;Samples;Min_cycle;Max_cycle;Signal;HPM_P1;HPM_P2
2021/09/21 00:01:35;;;;;;;10.38;6.15;;;13.80;99.90;;;;;;5030446;28;20023;-81
2021/09/21 00:04:00;;;;;;;9.63;6.40;;;13.80;99.90;;;;;;5032876;28;20006;-82
2021/09/21 00:06:26;;;;;;;9.15;6.07;;;13.70;99.90;;;;;;5034682;28;20030;-81
2021/09/21 00:08:52;;;;;;;9.45;6.50;;;13.70;99.90;;;;;;5028290;28;20348;-81
2021/09/21 00:11:17;;;;;;;9.70;5.60;;;13.70;99.90;;;;;;5022590;28;20063;-83
2021/09/21 00:13:43;;;;;;;10.05;5.78;;;13.70;99.90;;;;;;5013791;28;20548;-81
2021/09/21 00:16:09;;;;;;;10.00;6.00;;;14.00;99.90;;;;;;5025579;28;20032;-83
2021/09/21 00:18:34;;;;;;;8.18;5.45;;;13.70;99.90;;;;;;5016983;28;20026;-81
2021/09/21 00:21:01;;;;;;;11.13;6.18;;;13.70;99.90;;;;;;5021460;28;20013;-82
2021/09/21 00:23:28;;;;;;;9.40;6.13;;;13.60;99.90;;;;;;5020001;28;20030;-81
2021/09/21 00:25:54;;;;;;;8.95;6.22;;;13.60;99.90;;;;;;5021266;28;20021;-82
2021/09/21 00:28:20;;;;;;;8.60;5.07;;;13.50;99.90;;;;;;5019460;28;20471;-82
2021/09/21 00:30:49;;;;;;;10.13;6.47;;;13.50;99.90;;;;;;5020054;28;20026;-82
2021/09/21 00:33:20;;;;;;;10.75;6.05;;;13.60;99.90;;;;;;5017437;28;20037;-80
2021/09/21 00:35:48;;;;;;;9.90;6.18;;;13.60;99.90;;;;;;5020293;28;20029;-83
2021/09/21 00:38:15;;;;;;;8.32;5.85;;;13.50;99.90;;;;;;5021135;28;20040;-82
2021/09/21 00:40:43;;;;;;;8.23;6.00;;;13.50;99.90;;;;;;5020460;28;20026;-81
2021/09/21 00:43:09;;;;;;;10.60;6.63;;;13.40;99.90;;;;;;5018742;28;20038;-81
2021/09/21 00:45:34;;;;;;;10.48;6.57;;;13.40;99.90;;;;;;5020683;28;20038;-82
2021/09/21 00:48:00;;;;;;;10.57;6.78;;;13.30;99.90;;;;;;5018803;28;20044;-82
2021/09/21 00:50:28;;;;;;;11.60;6.28;;;13.30;99.90;;;;;;5017447;28;20044;-82
2021/09/21 00:52:59;;;;;;;12.48;7.00;;;13.30;99.90;;;;;;5017870;28;20021;-81
2021/09/21 00:55:26;;;;;;;9.80;5.57;;;13.30;99.90;;;;;;5016553;28;20093;-81
2021/09/21 00:57:51;;;;;;;9.80;6.35;;;13.40;99.90;;;;;;5017771;28;20112;-82
2021/09/21 01:00:20;;;;;;;9.77;5.82;;;13.40;99.90;;;;;;5017022;28;20054;-83
2021/09/21 01:02:46;;;;;;;13.80;6.30;;;13.50;99.90;;;;;;5020465;28;20402;-82
2021/09/21 01:05:12;;;;;;;10.13;6.25;;;13.40;99.90;;;;;;5020374;28;20045;-81
2021/09/21 01:07:43;;;;;;;9.10;6.28;;;13.40;99.90;;;;;;5024304;28;20025;-81
2021/09/21 01:10:25;;;;;;;11.10;5.95;;;13.50;99.90;;;;;;5026574;28;20597;-83
2021/09/21 01:12:51;;;;;;;10.73;6.45;;;13.50;99.90;;;;;;5022398;28;20026;-82
2021/09/21 01:15:17;;;;;;;10.13;6.68;;;13.50;99.90;;;;;;5026771;28;20026;-81
2021/09/21 01:17:43;;;;;;;11.70;6.63;;;13.50;99.90;;;;;;5023037;28;20025;-82
2021/09/21 01:20:10;;;;;;;10.80;6.80;;;13.40;99.90;;;;;;5020275;28;20028;-82
2021/09/21 01:22:36;;;;;;;10.73;6.65;;;13.40;99.90;;;;;;5015145;28;20025;-80
2021/09/21 01:25:03;;;;;;;10.75;7.07;;;13.40;99.90;;;;;;5019564;28;20022;-80
2021/09/21 01:27:29;;;;;;;12.20;6.80;;;13.50;99.90;;;;;;5020835;28;20100;-81
2021/09/21 01:29:54;;;;;;;10.63;6.90;;;13.50;99.90;;;;;;5016929;28;20072;-80
2021/09/21 01:32:21;;;;;;;9.43;6.63;;;13.50;99.90;;;;;;5018483;28;20107;-80
2021/09/21 01:34:48;;;;;;;9.55;6.22;;;13.50;99.90;;;;;;5017765;28;20022;-80
2021/09/21 01:37:13;;;;;;;8.98;6.25;;;13.60;99.90;;;;;;5018411;28;20030;-82
2021/09/21 01:39:41;;;;;;;11.88;7.10;;;13.60;99.90;;;;;;5022032;28;20037;-79
2021/09/21 01:42:08;;;;;;;10.13;6.63;;;13.50;99.90;;;;;;5023601;28;20064;-82
2021/09/21 01:44:34;;;;;;;10.68;6.72;;;13.50;99.90;;;;;;5020166;28;20042;-81
2021/09/21 01:47:03;;;;;;;12.75;7.80;;;13.50;99.90;;;;;;5023534;28;20072;-83
2021/09/21 01:49:36;;;;;;;13.40;7.43;;;13.40;99.90;;;;;;5022432;28;20033;-79
2021/09/21 01:54:46;;;;;;;9.73;6.95;;;13.40;99.90;;;;;;5023417;28;20022;-84
2021/09/21 01:59:56;;;;;;;11.02;7.00;;;13.40;99.90;;;;;;5023087;28;20106;-82
2021/09/21 02:02:21;;;;;;;11.35;7.28;;;13.30;99.90;;;;;;5023779;28;20398;-82
2021/09/21 02:04:47;;;;;;;13.75;7.50;;;13.30;99.90;;;;;;5021775;28;20029;-80
2021/09/21 02:07:14;;;;;;;12.55;7.03;;;13.20;99.90;;;;;;5020197;28;20351;-81
2021/09/21 02:09:39;;;;;;;10.15;7.10;;;13.30;99.90;;;;;;5019262;28;20049;-82
2021/09/21 02:12:05;;;;;;;11.23;7.30;;;13.10;99.90;;;;;;5020082;28;20030;-81
2021/09/21 02:14:31;;;;;;;12.57;7.15;;;13.20;99.90;;;;;;5019506;28;20109;-82
2021/09/21 02:16:57;;;;;;;10.90;6.63;;;13.20;99.90;;;;;;5020162;28;20080;-83
2021/09/21 02:19:23;;;;;;;12.85;7.85;;;13.10;99.90;;;;;;5018700;28;20033;-84
2021/09/21 02:21:50;;;;;;;10.65;7.43;;;13.10;99.90;;;;;;5018320;28;20018;-81
2021/09/21 02:24:22;;;;;;;10.63;7.20;;;13.10;99.90;;;;;;5017172;28;20402;-81
2021/09/21 02:26:47;;;;;;;;;;;13.10;99.90;;;;;;5016413;28;20032;-82
2021/09/21 02:29:13;;;;;;;11.00;7.10;;;13.10;99.90;;;;;;5017089;28;19906;-83
2021/09/21 02:31:39;;;;;;;10.55;6.80;;;13.20;99.90;;;;;;5016788;28;20026;-85
2021/09/21 02:34:04;;;;;;;10.63;6.68;;;13.10;99.90;;;;;;5018517;28;20041;-81
2021/09/21 02:36:30;;;;;;;13.20;7.75;;;13.20;99.90;;;;;;5019350;28;20083;-80
2021/09/21 02:38:56;;;;;;;10.52;6.88;;;13.20;99.90;;;;;;5019046;28;20459;-81
2021/09/21 02:41:21;;;;;;;9.00;6.15;;;13.20;99.90;;;;;;5020181;28;20105;-82
2021/09/21 02:43:48;;;;;;;11.35;7.00;;;13.20;99.90;;;;;;5021581;28;20021;-83
2021/09/21 02:46:14;;;;;;;9.32;6.32;;;13.20;99.90;;;;;;5021934;28;20368;-82
2021/09/21 02:48:40;;;;;;;10.25;6.47;;;13.20;99.90;;;;;;5022889;28;20049;-83
2021/09/21 02:51:06;;;;;;;14.32;7.63;;;13.20;99.90;;;;;;5023557;28;20090;-82
2021/09/21 02:53:31;;;;;;;12.70;6.93;;;13.20;99.90;;;;;;5022041;28;20030;-84
2021/09/21 02:55:57;;;;;;;12.80;7.28;;;13.20;99.90;;;;;;5022624;28;20032;-82
2021/09/21 02:58:23;;;;;;;11.00;6.72;;;13.10;99.90;;;;;;5024197;28;20548;-83
2021/09/21 03:00:53;;;;;;;12.52;7.03;;;13.10;99.90;;;;;;5022548;28;20034;-82
2021/09/21 03:03:20;;;;;;;10.35;7.20;;;13.10;99.90;;;;;;5021668;28;20024;-82
2021/09/21 03:05:54;;;;;;;13.98;6.90;;;13.00;99.90;;;;;;5022156;28;20040;-84
2021/09/21 03:08:22;;;;;;;10.02;6.50;;;13.00;99.90;;;;;;5021733;28;20390;-83
2021/09/21 03:11:06;;;;;;;12.23;7.55;;;13.00;99.90;;;;;;5020723;28;20383;-82
2021/09/21 03:19:04;;;;;;;10.07;6.68;;;13.00;99.90;;;;;;5017108;28;20029;-83
2021/09/21 03:21:30;;;;;;;11.68;6.78;;;13.00;99.90;;;;;;5019078;28;20030;-82
2021/09/21 03:23:56;;;;;;;10.30;6.65;;;13.10;99.90;;;;;;5020610;28;20063;-83
2021/09/21 03:26:21;;;;;;;10.15;7.22;;;13.10;99.90;;;;;;5020004;28;20010;-84
2021/09/21 03:28:47;;;;;;;11.55;7.28;;;13.10;99.90;;;;;;5020954;28;20026;-84
2021/09/21 03:31:13;;;;;;;12.52;7.38;;;13.10;99.90;;;;;;5019511;28;20022;-84
2021/09/21 03:33:39;;;;;;;11.55;7.15;;;13.10;99.90;;;;;;5020567;28;20057;-85
2021/09/21 03:36:05;;;;;;;10.73;7.20;;;13.10;99.90;;;;;;5022553;28;20025;-84
2021/09/21 03:38:30;;;;;;;13.50;7.70;;;13.00;99.90;;;;;;5017163;28;20026;-84
2021/09/21 03:40:56;;;;;;;11.95;7.40;;;13.00;99.90;;;;;;5021690;28;20026;-84
2021/09/21 03:43:22;;;;;;;11.90;7.15;;;13.00;99.90;;;;;;5024352;28;20017;-84
2021/09/21 03:45:47;;;;;;;11.43;7.57;;;12.90;99.90;;;;;;5043490;28;20021;-84
2021/09/21 03:48:13;;;;;;;11.40;7.53;;;12.90;99.90;;;;;;5019813;28;20414;-84
2021/09/21 03:50:39;;;;;;;11.52;7.00;;;12.90;99.90;;;;;;5023274;28;20018;-84
2021/09/21 03:53:05;;;;;;;11.20;7.95;;;12.90;99.90;;;;;;5024286;28;20021;-84
2021/09/21 03:55:31;;;;;;;11.55;7.50;;;12.90;99.90;;;;;;5023247;28;20029;-85
2021/09/21 03:57:56;;;;;;;12.02;7.47;;;12.90;99.90;;;;;;5039978;23;20109;-79
2021/09/21 04:00:22;;;;;;;12.95;7.97;;;12.90;99.90;;;;;;5036234;28;20021;-80
2021/09/21 04:02:48;;;;;;;12.05;7.65;;;12.90;99.90;;;;;;5036246;28;20382;-79
2021/09/21 04:05:13;;;;;;;10.52;7.10;;;12.80;99.90;;;;;;5053439;28;20048;-82
2021/09/21 04:07:39;;;;;;;11.55;7.60;;;12.80;99.90;;;;;;5051805;28;20460;-80
2021/09/21 04:10:06;;;;;;;11.05;7.63;;;12.80;99.90;;;;;;5055099;28;20017;-80
2021/09/21 04:12:32;;;;;;;10.88;7.55;;;12.80;99.90;;;;;;5051975;28;20032;-80
2021/09/21 04:14:58;;;;;;;11.88;7.53;;;12.80;99.90;;;;;;5053459;28;20021;-82
2021/09/21 04:17:23;;;;;;;12.55;6.88;;;12.80;99.90;;;;;;5055034;28;20029;-79
2021/09/21 04:19:49;;;;;;;11.73;7.78;;;12.80;99.90;;;;;;5054198;28;20147;-79
2021/09/21 04:22:15;;;;;;;12.95;8.50;;;12.80;99.90;;;;;;5053880;28;20040;-79
2021/09/21 04:24:40;;;;;;;13.55;7.75;;;12.80;99.90;;;;;;5051083;28;20032;-79
2021/09/21 04:27:07;;;;;;;13.98;7.53;;;12.80;99.90;;;;;;5053714;28;20021;-79
2021/09/21 04:29:33;;;;;;;11.85;7.25;;;12.80;99.90;;;;;;5053718;28;20024;-79
2021/09/21 04:32:01;;;;;;;12.50;7.80;;;12.80;99.90;;;;;;5052600;28;20040;-79
2021/09/21 04:34:26;;;;;;;14.63;8.30;;;12.70;99.90;;;;;;5052489;28;20021;-79
2021/09/21 04:36:52;;;;;;;11.65;7.72;;;12.70;99.90;;;;;;5054024;28;20019;-80
2021/09/21 04:39:18;;;;;;;13.07;8.45;;;12.70;99.90;;;;;;5054230;28;20097;-79
2021/09/21 04:41:43;;;;;;;14.38;7.97;;;12.70;99.90;;;;;;5067355;28;20049;-81
2021/09/21 04:44:09;;;;;;;12.73;7.47;;;12.70;99.90;;;;;;5051927;28;20432;-80
2021/09/21 04:46:35;;;;;;;13.90;7.55;;;12.70;99.90;;;;;;5052069;28;20017;-80
2021/09/21 04:49:04;;;;;;;13.95;8.15;;;12.60;99.90;;;;;;5052285;28;20024;-81
2021/09/21 04:51:30;;;;;;;12.02;7.68;;;12.60;99.90;;;;;;5052459;28;20082;-80
2021/09/21 04:53:56;;;;;;;13.15;7.40;;;12.70;99.90;;;;;;5052698;28;20021;-81
2021/09/21 04:56:22;;;;;;;11.60;7.60;;;12.60;99.90;;;;;;5046581;28;20416;-80
2021/09/21 04:58:47;;;;;;;13.43;8.00;;;12.60;99.90;;;;;;5051129;28;20025;-80
2021/09/21 05:01:13;;;;;;;12.50;7.97;;;12.50;99.90;;;;;;5051842;28;20025;-81
2021/09/21 05:03:38;;;;;;;12.93;8.55;;;12.50;99.90;;;;;;5048069;28;20371;-80
2021/09/21 05:06:04;;;;;;;13.20;8.88;;;12.50;99.90;;;;;;5049317;28;20079;-80
2021/09/21 05:08:30;;;;;;;13.30;8.63;;;12.50;99.90;;;;;;5050308;28;20025;-80
2021/09/21 05:10:55;;;;;;;12.95;8.73;;;12.50;99.90;;;;;;5051162;28;20021;-80
2021/09/21 05:13:21;;;;;;;13.13;7.95;;;12.50;99.90;;;;;;5049253;28;20389;-80
2021/09/21 05:15:46;;;;;;;11.82;8.27;;;12.50;99.90;;;;;;5052432;28;20075;-79
2021/09/21 05:18:12;;;;;;;12.25;7.82;;;12.50;99.90;;;;;;5053830;28;20078;-79
2021/09/21 05:20:38;;;;;;;12.73;8.48;;;12.50;99.90;;;;;;5037732;28;20040;-79
2021/09/21 05:23:03;;;;;;;14.35;8.52;;;12.40;99.90;;;;;;5045959;28;20033;-79
2021/09/21 05:25:29;;;;;;;14.38;8.45;;;12.30;99.90;;;;;;5054036;28;20016;-79
2021/09/21 05:27:54;;;;;;;12.75;8.20;;;12.30;99.90;;;;;;5042170;28;20673;-79
2021/09/21 05:30:20;;;;;;;12.55;8.27;;;12.30;99.90;;;;;;5033758;28;20381;-79
2021/09/21 05:32:46;;;;;;;11.68;8.15;;;12.30;99.90;;;;;;5054660;28;20314;-79
2021/09/21 05:35:13;;;;;;;14.32;8.00;;;12.20;99.90;;;;;;5053742;28;20033;-80
2021/09/21 05:37:39;;;;;;;13.15;8.07;;;12.30;99.90;;;;;;5051795;28;20025;-79
2021/09/21 05:40:07;;;;;;;13.23;7.95;;;12.30;99.90;;;;;;5053460;28;20033;-80
2021/09/21 05:42:34;;;;;;;13.15;7.72;;;12.30;99.90;;;;;;5069554;28;20021;-80
2021/09/21 05:45:00;;;;;;;10.43;7.35;;;12.30;99.90;;;;;;5049233;28;20030;-79
2021/09/21 05:47:25;;;;;;;12.80;7.93;;;12.30;99.90;;;;;;5052408;28;20097;-80
2021/09/21 05:49:51;;;;;;;12.48;7.70;;;12.30;99.90;;;;;;5058520;28;20070;-79
2021/09/21 05:52:17;;;;;;;11.68;7.95;;;12.30;99.90;;;;;;5053469;28;20029;-79
2021/09/21 05:54:42;;;;;;;11.38;7.45;;;12.30;99.90;;;;;;5050180;28;20060;-79
2021/09/21 05:57:08;;;;;;;11.32;7.70;;;12.30;99.90;;;;;;5039595;28;20025;-79
2021/09/21 05:59:33;;;;;;;12.48;7.50;;;12.40;99.90;;;;;;5051224;28;20485;-79
2021/09/21 06:01:59;;;;;;;12.10;7.20;;;12.50;99.90;;;;;;5051655;28;20036;-79
2021/09/21 06:04:25;;;;;;;11.73;7.47;;;12.50;99.90;;;;;;5039810;28;20049;-79
2021/09/21 06:06:50;;;;;;;11.90;8.00;;;12.50;99.90;;;;;;5032863;28;20040;-79
2021/09/21 06:09:16;;;;;;;10.40;6.90;;;12.50;99.90;;;;;;5047517;28;20140;-79
2021/09/21 06:11:42;;;;;;;10.65;7.20;;;12.50;99.90;;;;;;5061061;28;20358;-80
2021/09/21 06:14:07;;;;;;;10.93;7.20;;;12.60;99.90;;;;;;5049822;28;20067;-79
2021/09/21 06:16:33;;;;;;;11.55;6.97;;;12.60;99.90;;;;;;5049226;28;20055;-79
2021/09/21 06:18:59;;;;;;;12.35;7.50;;;12.70;99.90;;;;;;5051050;28;20013;-79
2021/09/21 06:21:25;;;;;;;10.63;7.57;;;12.80;99.90;;;;;;5051756;28;20419;-79
2021/09/21 06:23:51;;;;;;;9.68;6.60;;;12.70;99.90;;;;;;5055553;28;20017;-80
2021/09/21 06:26:17;;;;;;;10.73;6.70;;;12.80;99.90;;;;;;5054279;28;20120;-80
2021/09/21 06:28:43;;;;;;;10.77;7.03;;;12.80;99.90;;;;;;5052066;28;20592;-79
2021/09/21 06:31:09;;;;;;;10.60;7.07;;;12.90;99.90;;;;;;5053134;28;20055;-79
2021/09/21 06:33:35;;;;;;;10.85;7.35;;;13.00;99.90;;;;;;5055410;28;20136;-80
2021/09/21 06:36:01;;;;;;;12.23;7.38;;;13.10;99.90;;;;;;5053584;28;20029;-80
2021/09/21 06:38:27;;;;;;;8.80;6.40;;;13.10;99.90;;;;;;5035136;28;20105;-80
2021/09/21 06:40:52;;;;;;;8.95;6.63;;;13.20;99.90;;;;;;5035871;28;20421;-80
2021/09/21 06:43:18;;;;;;;9.50;6.65;;;13.40;99.90;;;;;;5056180;28;20440;-80
2021/09/21 06:45:44;;;;;;;11.18;6.78;;;13.40;99.90;;;;;;5042115;28;20033;-80
2021/09/21 06:48:11;;;;;;;10.30;6.22;;;13.50;99.90;;;;;;5048251;28;20070;-79
2021/09/21 06:50:37;;;;;;;13.30;6.53;;;13.50;99.90;;;;;;5074350;28;20020;-81
2021/09/21 06:53:04;;;;;;;9.80;6.93;;;13.50;99.90;;;;;;5073653;28;20020;-81
2021/09/21 06:55:29;;;;;;;10.20;7.15;;;13.50;99.90;;;;;;5048086;28;20048;-81
2021/09/21 06:57:58;;;;;;;9.68;6.40;;;13.60;99.90;;;;;;5031865;28;20465;-80
2021/09/21 07:00:23;;;;;;;10.93;6.80;;;13.70;99.90;;;;;;5050751;28;20030;-80
2021/09/21 07:02:53;;;;;;;12.57;7.13;;;13.70;99.90;;;;;;5038433;28;20100;-81
2021/09/21 07:05:20;;;;;;;11.30;6.60;;;13.80;99.90;;;;;;5042865;28;20059;-81
2021/09/21 07:07:48;;;;;;;11.27;6.95;;;13.80;99.90;;;;;;5068019;28;20032;-81
2021/09/21 07:10:15;;;;;;;11.88;6.47;;;13.90;99.90;;;;;;5054005;28;20039;-81
2021/09/21 07:12:41;;;;;;;10.07;7.03;;;13.90;99.90;;;;;;5053324;28;20048;-81
2021/09/21 07:15:08;;;;;;;10.18;6.88;;;14.00;99.90;;;;;;5048241;28;20033;-81
2021/09/21 07:17:34;;;;;;;12.40;6.97;;;14.00;99.90;;;;;;5034211;28;20049;-81
2021/09/21 07:20:00;;;;;;;10.48;6.65;;;14.00;99.90;;;;;;5049403;28;20462;-81
2021/09/21 07:22:31;;;;;;;12.50;7.20;;;14.00;99.90;;;;;;5036079;28;20059;-82
2021/09/21 07:24:57;;;;;;;10.10;6.88;;;14.00;99.90;;;;;;5038546;28;20025;-81
2021/09/21 07:27:25;;;;;;;9.82;6.57;;;14.10;99.90;;;;;;5050065;28;20087;-81
2021/09/21 07:29:51;;;;;;;12.10;7.30;;;14.20;99.90;;;;;;5052121;28;20013;-81
2021/09/21 07:32:17;;;;;;;9.85;6.93;;;14.30;99.90;;;;;;5049181;28;20505;-81
2021/09/21 07:34:42;;;;;;;10.32;6.18;;;14.30;99.90;;;;;;5033192;28;20065;-81
2021/09/21 07:37:09;;;;;;;9.68;6.72;;;14.20;99.90;;;;;;5033226;28;20552;-81
2021/09/21 07:39:36;;;;;;;9.05;6.32;;;14.30;99.90;;;;;;5047830;28;20752;-81
2021/09/21 07:42:02;;;;;;;8.60;6.00;;;14.40;99.90;;;;;;5037960;28;20014;-81
2021/09/21 07:44:27;;;;;;;8.68;6.15;;;14.40;99.90;;;;;;5050012;28;20032;-81
2021/09/21 07:46:53;;;;;;;9.63;6.15;;;14.40;99.90;;;;;;5051399;28;20021;-80
2021/09/21 07:49:19;;;;;;;12.25;6.50;;;14.30;99.90;;;;;;5049031;28;20087;-80
2021/09/21 07:51:45;;;;;;;9.32;6.28;;;14.40;99.90;;;;;;5035514;28;20057;-80
2021/09/21 07:54:11;;;;;;;8.75;6.28;;;14.40;99.90;;;;;;5031867;28;20091;-79
2021/09/21 07:56:38;;;;;;;8.85;6.07;;;14.50;99.90;;;;;;5039369;28;20091;-81
2021/09/21 07:59:05;;;;;;;10.43;6.47;;;14.60;99.90;;;;;;5051533;28;20060;-81
2021/09/21 08:01:31;;;;;;;10.98;7.07;;;14.60;99.90;;;;;;5054339;28;20516;-81
2021/09/21 08:03:57;;;;;;;9.60;6.72;;;14.50;99.90;;;;;;5052596;28;20517;-81
2021/09/21 08:06:23;;;;;;;9.02;6.28;;;14.60;99.90;;;;;;5053229;28;20052;-81
2021/09/21 08:08:49;;;;;;;11.10;6.35;;;14.60;99.90;;;;;;5053723;28;20021;-81
2021/09/21 08:11:15;;;;;;;8.30;5.57;;;14.60;99.90;;;;;;5052713;28;20033;-81
2021/09/21 08:13:40;;;;;;;10.52;6.55;;;14.50;99.90;;;;;;5045017;28;20085;-81
2021/09/21 08:16:06;;;;;;;9.75;5.65;;;14.50;99.90;;;;;;5048711;28;20025;-82
2021/09/21 08:18:32;;;;;;;9.23;6.03;;;14.60;99.90;;;;;;5053702;28;20504;-81
2021/09/21 08:20:58;;;;;;;10.38;6.10;;;14.60;99.90;;;;;;5052740;28;20033;-81
2021/09/21 08:23:24;;;;;;;8.80;6.05;;;14.80;99.90;;;;;;5053066;28;20025;-81
2021/09/21 08:25:51;;;;;;;10.60;6.40;;;14.90;99.90;;;;;;5035914;28;20489;-81
2021/09/21 08:28:17;;;;;;;10.63;5.88;;;14.90;99.90;;;;;;5048193;28;20140;-81
2021/09/21 08:30:43;;;;;;;11.18;6.75;;;14.90;99.90;;;;;;5049758;28;20056;-81
2021/09/21 08:33:09;;;;;;;8.45;6.07;;;15.00;99.90;;;;;;5049825;28;20024;-81
2021/09/21 08:35:35;;;;;;;12.25;6.13;;;15.10;99.90;;;;;;5051291;28;20033;-81
2021/09/21 08:41:25;;;;;;;9.98;5.63;;;15.30;99.90;;;;;;5042495;28;20112;-81
2021/09/21 08:43:51;;;;;;;8.43;5.72;;;15.40;99.90;;;;;;5052358;28;20137;-81
2021/09/21 08:46:18;;;;;;;5.47;3.78;;;15.30;99.90;;;;;;5046394;28;20032;-81
2021/09/21 08:48:44;;;;;;;9.55;5.82;;;15.10;99.90;;;;;;5051623;28;20067;-81
2021/09/21 08:51:09;;;;;;;7.63;4.25;;;15.00;99.90;;;;;;5052727;28;20021;-81
2021/09/21 08:53:38;;;;;;;7.88;5.05;;;15.00;99.90;;;;;;5061183;28;20106;-80
2021/09/21 08:56:04;;;;;;;7.60;5.25;;;15.10;99.90;;;;;;5059896;28;20040;-80
2021/09/21 08:58:31;;;;;;;6.95;4.90;;;15.30;99.90;;;;;;5053601;28;20247;-81
2021/09/21 09:01:08;;;;;;;6.22;3.83;;;15.30;99.90;;;;;;5048917;28;20039;-81
2021/09/21 09:03:34;;;;;;;8.02;3.83;;;15.30;99.90;;;;;;5051370;28;20033;-81
2021/09/21 09:06:08;;;;;;;7.28;4.47;;;15.60;99.90;;;;;;5053536;28;20048;-81
2021/09/21 09:08:36;;;;;;;7.95;4.53;;;15.70;99.90;;;;;;5049510;28;20027;-81
2021/09/21 09:11:17;;;;;;;8.77;4.57;;;15.80;99.90;;;;;;5052463;28;20021;-81
2021/09/21 09:13:45;;;;;;;9.18;4.60;;;15.90;99.90;;;;;;5051578;28;20033;-81
2021/09/21 09:16:16;;;;;;;6.68;4.60;;;15.90;99.90;;;;;;5051954;28;20568;-81
2021/09/21 09:18:43;;;;;;;8.43;4.83;;;16.10;99.90;;;;;;5053673;28;20025;-81
2021/09/21 09:21:10;;;;;;;6.63;4.60;;;16.10;99.90;;;;;;5051992;28;20334;-81
2021/09/21 09:23:45;;;;;;;7.50;5.10;;;16.20;99.90;;;;;;5051088;28;20059;-81
2021/09/21 09:26:11;;;;;;;7.32;5.32;;;16.30;99.90;;;;;;5060709;28;20650;-80
2021/09/21 09:28:36;;;;;;;8.93;4.93;;;16.40;99.90;;;;;;5058130;28;20021;-80
2021/09/21 09:31:02;;;;;;;7.82;4.97;;;16.50;99.90;;;;;;5062107;28;20159;-80
2021/09/21 09:33:32;;;;;;;8.38;4.75;;;16.50;99.90;;;;;;5045369;28;20128;-80
2021/09/21 09:36:00;;;;;;;7.70;4.68;;;16.50;99.70;;;;;;5047214;28;20041;-80
2021/09/21 09:38:26;;;;;;;7.82;4.30;;;16.60;99.20;;;;;;5045696;28;20111;-80
2021/09/21 09:40:55;;;;;;;6.20;4.38;;;16.70;99.30;;;;;;5071917;28;20075;-80
2021/09/21 09:43:24;;;;;;;7.32;4.30;;;17.10;99.20;;;;;;5054207;28;20064;-80
2021/09/21 09:45:52;;;;;;;7.13;4.45;;;17.00;98.00;;;;;;5044495;28;20026;-80
2021/09/21 09:48:20;;;;;;;7.85;4.20;;;17.00;98.60;;;;;;5050096;28;20028;-80
2021/09/21 09:50:52;;;;;;;7.28;4.53;;;16.90;98.10;;;;;;5053098;28;20028;-80
2021/09/21 09:53:20;;;;;;;6.53;4.30;;;16.70;97.90;;;;;;5050658;28;20021;-79
2021/09/21 09:55:48;;;;;;;7.85;4.57;;;16.60;98.00;;;;;;5051283;28;20055;-80
2021/09/21 09:58:15;;;;;;;6.63;4.50;;;16.50;98.20;;;;;;5056127;28;20060;-80
2021/09/21 10:00:41;;;;;;;6.80;4.70;;;16.60;97.90;;;;;;5047762;28;20037;-80
2021/09/21 10:03:07;;;;;;;11.77;5.60;;;16.60;98.40;;;;;;5043132;28;20021;-80
2021/09/21 10:05:38;;;;;;;9.65;5.22;;;16.50;98.40;;;;;;5067833;22;20076;-80
2021/09/21 10:08:07;;;;;;;10.10;5.00;;;16.50;98.60;;;;;;5031224;28;20021;-81
2021/09/21 10:10:38;;;;;;;8.80;5.35;;;16.70;98.00;;;;;;5037815;28;20025;-81
2021/09/21 10:13:08;;;;;;;8.77;4.93;;;16.80;97.90;;;;;;5037637;28;20035;-81
2021/09/21 10:15:34;;;;;;;8.00;4.55;;;16.80;98.20;;;;;;5033347;28;20044;-82
2021/09/21 10:18:00;;;;;;;6.95;4.57;;;17.00;98.00;;;;;;5037333;28;20023;-83
2021/09/21 10:20:32;;;;;;;7.63;4.53;;;17.00;98.00;;;;;;5035840;28;20021;-82
2021/09/21 10:22:58;;;;;;;8.32;4.40;;;17.00;97.60;;;;;;5040768;28;20021;-83
2021/09/21 10:25:39;;;;;;;8.82;5.00;;;17.10;97.70;;;;;;5040758;28;20034;-83
2021/09/21 10:28:17;;;;;;;7.57;4.63;;;17.10;97.30;;;;;;5034438;28;20026;-81
2021/09/21 10:30:57;;;;;;;10.45;5.18;;;17.20;97.70;;;;;;5037109;28;20028;-81
2021/09/21 10:33:25;;;;;;;6.95;4.78;;;17.20;96.90;;;;;;5034199;28;20679;-82
2021/09/21 10:35:52;;;;;;;5.93;4.07;;;17.30;96.80;;;;;;5037784;28;20340;-82
2021/09/21 10:38:19;;;;;;;7.85;5.22;;;17.20;96.40;;;;;;5038958;28;20351;-81
2021/09/21 10:40:50;;;;;;;6.13;4.38;;;17.20;97.00;;;;;;5039021;28;20045;-83
2021/09/21 10:43:33;;;;;;;7.15;4.20;;;17.20;97.00;;;;;;5039285;28;20481;-82
2021/09/21 10:46:14;;;;;;;8.30;5.22;;;17.50;96.80;;;;;;5034728;28;20018;-83
2021/09/21 10:48:44;;;;;;;9.68;5.63;;;17.60;96.90;;;;;;5037958;28;20029;-81
2021/09/21 10:51:11;;;;;;;7.65;4.72;;;17.70;95.70;;;;;;5031411;28;20075;-83
2021/09/21 10:53:37;;;;;;;7.38;4.70;;;17.70;96.60;;;;;;5034504;28;20502;-82
2021/09/21 10:56:08;;;;;;;8.27;4.80;;;17.70;96.50;;;;;;5035621;28;20033;-82
2021/09/21 10:58:35;;;;;;;8.55;5.35;;;17.80;95.80;;;;;;5025952;28;20085;-81
2021/09/21 11:01:02;;;;;;;6.75;4.63;;;17.90;96.00;;;;;;5016293;28;20057;-82
2021/09/21 11:03:29;;;;;;;7.13;4.30;;;18.10;95.80;;;;;;5022328;28;20037;-80
2021/09/21 11:05:59;;;;;;;8.77;5.35;;;18.30;96.80;;;;;;5018745;28;20124;-82
2021/09/21 11:08:33;;;;;;;8.75;4.97;;;18.30;95.90;;;;;;5032694;28;20120;-83
2021/09/21 11:11:01;;;;;;;6.80;4.40;;;18.60;95.40;;;;;;5035063;28;20033;-83
2021/09/21 11:13:32;;;;;;;8.43;4.90;;;18.70;95.30;;;;;;5043863;28;20081;-82
2021/09/21 11:16:00;;;;;;;6.90;4.70;;;18.70;94.60;;;;;;5051955;28;20088;-83
2021/09/21 11:18:25;;;;;;;7.15;4.90;;;18.40;94.60;;;;;;5042150;28;20022;-82
2021/09/21 11:21:01;;;;;;;7.68;5.40;;;18.20;95.30;;;;;;5040406;28;20026;-82
2021/09/21 11:23:29;;;;;;;7.65;4.75;;;18.10;94.80;;;;;;5039774;28;20045;-82
2021/09/21 11:25:59;;;;;;;6.85;4.60;;;17.80;94.90;;;;;;5039019;28;20047;-83
2021/09/21 11:28:26;;;;;;;9.27;4.90;;;17.80;95.40;;;;;;5036131;28;20022;-82
2021/09/21 11:30:54;;;;;;;6.75;4.57;;;17.70;95.90;;;;;;5037184;28;20045;-81
2021/09/21 11:33:23;;;;;;;6.45;4.70;;;17.80;95.90;;;;;;5043080;28;20100;-81
2021/09/21 11:35:53;;;;;;;7.53;5.00;;;17.70;95.50;;;;;;5038750;28;20393;-80
2021/09/21 11:38:20;;;;;;;7.82;4.80;;;17.80;95.00;;;;;;5034617;28;20064;-81
2021/09/21 11:40:46;;;;;;;7.38;4.38;;;17.80;96.00;;;;;;5043880;28;20173;-81
2021/09/21 11:43:14;;;;;;;7.97;5.47;;;17.80;95.30;;;;;;5039066;28;20042;-81
2021/09/21 11:45:42;;;;;;;8.57;4.75;;;17.60;95.00;;;;;;5041988;28;20033;-80
2021/09/21 11:48:12;;;;;;;6.80;4.72;;;17.80;95.60;;;;;;5040606;28;20089;-81
2021/09/21 11:50:40;;;;;;;7.93;4.72;;;18.00;95.10;;;;;;5040625;28;20413;-82
2021/09/21 11:53:08;;;;;;;6.32;4.30;;;18.10;95.30;;;;;;5037301;28;20021;-82
2021/09/21 11:55:37;;;;;;;7.22;5.07;;;18.10;95.30;;;;;;5037992;28;20022;-82
2021/09/21 11:58:05;;;;;;;8.52;5.38;;;18.10;95.00;;;;;;5035233;28;20037;-81
2021/09/21 12:00:35;;;;;;;7.80;4.65;;;18.00;95.10;;;;;;5037863;28;20022;-82
2021/09/21 12:03:05;;;;;;;7.53;4.43;;;18.00;95.10;;;;;;5034355;28;20030;-81
2021/09/21 12:05:34;;;;;;;7.40;4.60;;;18.20;95.00;;;;;;5033977;28;20102;-82
2021/09/21 12:08:03;;;;;;;7.22;4.78;;;18.20;95.40;;;;;;5037734;28;20045;-81
2021/09/21 12:10:29;;;;;;;8.23;5.07;;;18.40;94.90;;;;;;5036251;28;20075;-81
2021/09/21 12:13:14;;;;;;;7.47;5.43;;;18.20;94.20;;;;;;5023490;28;20026;-83
2021/09/21 12:15:47;;;;;;;7.57;5.25;;;18.40;94.30;;;;;;5030396;28;20026;-82
2021/09/21 12:18:16;;;;;;;8.02;4.80;;;18.50;94.40;;;;;;5016861;28;20018;-83
2021/09/21 12:20:53;;;;;;;8.15;5.47;;;18.50;94.10;;;;;;5035727;28;20030;-82
2021/09/21 12:23:22;;;;;;;8.15;5.28;;;18.50;93.80;;;;;;5031085;28;20032;-82
2021/09/21 12:25:50;;;;;;;7.65;5.40;;;18.60;93.90;;;;;;5043492;28;20048;-81
2021/09/21 12:28:16;;;;;;;9.45;5.07;;;18.50;93.70;;;;;;5036661;28;20100;-81
2021/09/21 12:30:46;;;;;;;7.80;5.10;;;18.50;94.10;;;;;;5036391;28;20151;-82
2021/09/21 12:33:15;;;;;;;11.15;5.20;;;18.40;94.20;;;;;;5037283;28;20394;-82
2021/09/21 12:35:45;;;;;;;8.77;5.30;;;18.40;94.20;;;;;;5029491;28;20083;-82
2021/09/21 12:38:14;;;;;;;9.35;5.50;;;18.40;94.10;;;;;;5032567;28;20528;-81
2021/09/21 12:40:54;;;;;;;8.43;5.50;;;18.50;94.40;;;;;;5032800;28;20033;-82
2021/09/21 12:43:28;;;;;;;8.95;5.28;;;18.80;93.80;;;;;;5027976;28;20367;-82
2021/09/21 12:45:57;;;;;;;8.38;5.18;;;19.20;93.50;;;;;;5033058;28;20107;-81
2021/09/21 12:48:27;;;;;;;7.57;5.25;;;19.50;92.90;;;;;;5031495;28;20110;-82
2021/09/21 12:50:55;;;;;;;8.27;5.40;;;19.30;93.20;;;;;;5027825;28;20031;-81
2021/09/21 12:53:21;;;;;;;9.60;4.78;;;19.40;92.90;;;;;;5031497;28;20020;-80
2021/09/21 12:55:54;;;;;;;7.60;5.22;;;19.40;93.50;;;;;;5033407;28;20026;-80